Saturday, November 18, 2017, 6:07 PM EST
Back to Local

KTAN, Taunton Municipal Airport

Location: East Taunton, MA, United States Lat: 41.883
Local Time: 6:07 PM EST (23:07 GMT) Lon: -71.017
Time Zone: US/Eastern Elev: 42 ft

Show me the last for .
Show Decoded

2017-11-18 17:52 METAR KTAN 182252Z AUTO 16003KT 10SM OVC090 08/06 A2968 RMK AO2 SLP052 T00830056
                 $ =
2017-11-18 16:52 METAR KTAN 182152Z AUTO 12003KT 10SM OVC090 08/04 A2970 RMK AO2 SLP058 T00780044
                 =
2017-11-18 15:52 METAR KTAN 182052Z AUTO 13006KT 10SM CLR 08/04 A2972 RMK AO2 SLP064 T00830039
                 58038 =
2017-11-18 14:52 METAR KTAN 181952Z AUTO VRB03KT 10SM CLR 09/03 A2977 RMK AO2 SLP080 T00940028 =
2017-11-18 13:52 METAR KTAN 181852Z AUTO 00000KT 10SM CLR 09/02 A2980 RMK AO2 SLP091 T00890017 =
2017-11-18 12:52 METAR KTAN 181752Z AUTO 20003KT 10SM CLR 08/M01 A2983 RMK AO2 SLP101 T00831006
                 10083 21067 58040 =
2017-11-18 11:52 METAR KTAN 181652Z AUTO 23006KT 10SM CLR 07/M03 A2987 RMK AO2 SLP115 T00721028 =
2017-11-18 10:52 METAR KTAN 181552Z AUTO VRB05KT 10SM CLR 07/M02 A2991 RMK AO2 SLP129 T00671022 =
2017-11-18 09:52 METAR KTAN 181452Z AUTO 00000KT 10SM CLR 04/M06 A2995 RMK AO2 SLP141 T00391056
                 58013 =
2017-11-18 08:52 METAR KTAN 181352Z AUTO 00000KT 10SM CLR 02/M05 A2996 RMK AO2 SLP144 T00171050 =
2017-11-18 07:52 METAR KTAN 181252Z AUTO 00000KT 10SM CLR M02/M04 A2999 RMK AO2 SLP154 T10171039
                 =
2017-11-18 06:52 METAR KTAN 181152Z AUTO 00000KT 10SM CLR M07/M08 A2999 RMK AO2 SLP154 I1000
                 I6000 T10671078 11017 21067 53004 =
2017-11-18 05:52 METAR KTAN 181052Z AUTO 00000KT 10SM CLR M07/M08 A2997 RMK AO2 SLP149 I1000
                 T10671078 =
2017-11-18 04:52 METAR KTAN 180952Z AUTO 00000KT 10SM CLR M06/M07 A2999 RMK AO2 SLP155 T10561067
                 =
2017-11-18 03:52 METAR KTAN 180852Z AUTO 00000KT 10SM CLR M06/M07 A2997 RMK AO2 SLP150 T10561072
                 58012 =
2017-11-18 02:52 METAR KTAN 180752Z AUTO 00000KT 10SM CLR M05/M07 A3000 RMK AO2 SLP157 T10501072
                 =
2017-11-18 01:52 METAR KTAN 180652Z AUTO 00000KT 10SM CLR M04/M07 A3001 RMK AO2 SLP161 T10391067
                 =
2017-11-18 00:52 METAR KTAN 180552Z AUTO 26004KT 10SM CLR M03/M07 A3001 RMK AO2 SLP161 T10331067
                 10022 21050 53008 =
2017-11-17 23:52 METAR KTAN 180452Z AUTO 00000KT 10SM CLR M02/M07 A2998 RMK AO2 SLP153 T10221067
                 400781044 =
2017-11-17 22:52 METAR KTAN 180352Z AUTO 26003KT 10SM CLR M04/M06 A2999 RMK AO2 SLP154 T10441056
                 =
2017-11-17 21:52 METAR KTAN 180252Z AUTO 00000KT 10SM CLR M03/M06 A2998 RMK AO2 SLP153 T10331061
                 50000 =
2017-11-17 20:52 METAR KTAN 180152Z AUTO 00000KT 10SM CLR 01/M06 A3000 RMK AO2 SLP160 T00061061 =
2017-11-17 19:52 METAR KTAN 180052Z AUTO 27005KT 10SM CLR 02/M06 A3000 RMK AO2 SLP157 T00221061 =
2017-11-17 18:52 METAR KTAN 172352Z AUTO 27005KT 10SM CLR 02/M06 A2998 RMK AO2 SLP153 T00221061
                 10078 20011 51020 =

Support USWX by starting your Amazon purchase here.